createdAt,value
2023-01-10T00:03:12.089Z,9.50
2023-01-10T00:06:15.221Z,15.90
2023-01-10T00:09:17.131Z,12.23
2023-01-10T00:12:38.019Z,9.98
2023-01-10T00:15:41.466Z,9.45
2023-01-10T00:18:43.262Z,10.15
2023-01-10T00:21:45.132Z,7.65
2023-01-10T00:24:46.963Z,8.00
2023-01-10T00:28:06.925Z,7.53
2023-01-10T00:31:12.126Z,7.07
2023-01-10T00:34:14.678Z,6.90
2023-01-10T00:37:16.414Z,7.13
2023-01-10T00:40:18.425Z,7.22
2023-01-10T00:43:39.204Z,5.95
2023-01-10T00:46:42.395Z,5.07
2023-01-10T00:49:44.476Z,4.70
2023-01-10T00:52:46.434Z,4.45
2023-01-10T00:55:48.559Z,4.43
2023-01-10T00:58:50.267Z,4.05
2023-01-10T01:01:53.588Z,4.07
2023-01-10T01:04:55.717Z,3.58
2023-01-10T01:07:57.636Z,3.17
2023-01-10T01:10:59.466Z,4.55
2023-01-10T01:14:01.288Z,3.25
2023-01-10T01:17:04.711Z,3.97
2023-01-10T01:20:08.230Z,3.35
2023-01-10T01:23:10.079Z,3.47
2023-01-10T01:26:11.927Z,3.05
2023-01-10T01:29:13.573Z,2.65
2023-01-10T01:32:16.787Z,2.70
2023-01-10T01:35:18.898Z,2.20
2023-01-10T01:38:20.649Z,2.38
2023-01-10T01:41:40.895Z,2.05
2023-01-10T01:44:43.220Z,3.00
2023-01-10T01:47:51.569Z,2.00
2023-01-10T01:51:05.152Z,1.65
2023-01-10T01:54:12.112Z,2.00
2023-01-10T01:57:18.060Z,2.05
2023-01-10T02:00:20.183Z,1.85
2023-01-10T02:03:23.816Z,1.65
2023-01-10T02:06:25.761Z,1.27
2023-01-10T02:09:33.408Z,1.80
2023-01-10T02:12:36.359Z,1.50
2023-01-10T02:15:38.252Z,1.35
2023-01-10T02:18:43.241Z,1.33
2023-01-10T02:22:22.141Z,2.35
2023-01-10T02:25:55.348Z,1.50
2023-01-10T02:29:33.944Z,1.90
2023-01-10T02:32:56.614Z,2.40
2023-01-10T02:36:24.796Z,2.40
2023-01-10T02:39:35.360Z,2.80
2023-01-10T02:42:42.613Z,3.13
2023-01-10T02:45:48.741Z,4.05
2023-01-10T02:48:51.808Z,3.33
2023-01-10T02:51:53.806Z,4.47
2023-01-10T02:55:00.393Z,3.42
2023-01-10T02:58:14.513Z,2.83
2023-01-10T03:01:22.301Z,3.40
2023-01-10T03:04:34.163Z,3.63
2023-01-10T03:07:43.740Z,4.15
2023-01-10T03:10:51.924Z,4.13
2023-01-10T03:14:00.948Z,4.10
2023-01-10T03:17:06.673Z,6.30
2023-01-10T03:20:11.486Z,4.80
2023-01-10T03:23:16.160Z,4.72
2023-01-10T03:26:26.354Z,8.07
2023-01-10T03:29:32.309Z,4.78
2023-01-10T03:32:34.855Z,6.22
2023-01-10T03:35:50.928Z,5.13
2023-01-10T03:38:55.580Z,4.28
2023-01-10T03:42:07.167Z,6.18
2023-01-10T03:45:13.568Z,4.57
2023-01-10T03:48:17.356Z,4.20
2023-01-10T03:51:21.044Z,4.55
2023-01-10T03:54:23.204Z,4.38
2023-01-10T03:57:25.595Z,4.97
2023-01-10T04:00:27.852Z,4.13
2023-01-10T04:06:33.075Z,3.63
2023-01-10T04:09:34.967Z,4.97
2023-01-10T04:12:36.904Z,4.00
2023-01-10T04:15:38.743Z,4.57
2023-01-10T04:18:40.552Z,4.07
2023-01-10T04:21:43.940Z,4.38
2023-01-10T04:24:47.150Z,4.30
2023-01-10T04:27:49.137Z,3.88
2023-01-10T04:30:51.175Z,4.00
2023-01-10T04:33:53.480Z,4.35
2023-01-10T04:39:58.562Z,4.22
2023-01-10T04:43:00.414Z,3.40
2023-01-10T04:46:02.324Z,4.45
2023-01-10T04:49:04.141Z,3.88
2023-01-10T04:52:07.405Z,4.30
2023-01-10T04:55:10.351Z,4.53
2023-01-10T04:58:12.679Z,5.00
2023-01-10T05:01:17.349Z,4.40
2023-01-10T05:04:20.894Z,5.05
2023-01-10T05:07:24.398Z,5.20
2023-01-10T05:10:26.666Z,5.07
2023-01-10T05:13:28.418Z,6.20
2023-01-10T05:16:30.383Z,5.57
2023-01-10T05:19:32.449Z,5.53
2023-01-10T05:22:35.665Z,4.05
2023-01-10T05:25:37.636Z,4.47
2023-01-10T05:28:40.333Z,3.92
2023-01-10T05:31:42.525Z,4.38
2023-01-10T05:37:47.526Z,4.85
2023-01-10T05:40:54.567Z,5.75
2023-01-10T05:43:56.635Z,4.95
2023-01-10T05:46:58.430Z,6.05
2023-01-10T05:50:00.499Z,6.28
2023-01-10T05:56:09.454Z,6.50
2023-01-10T05:59:26.968Z,7.25
2023-01-10T06:02:30.714Z,7.70
2023-01-10T06:05:32.602Z,7.50
2023-01-10T06:08:37.252Z,7.22
2023-01-10T06:11:39.395Z,8.27
2023-01-10T06:14:41.201Z,7.80
2023-01-10T06:17:44.564Z,7.50
2023-01-10T06:20:46.647Z,7.55
2023-01-10T06:23:49.788Z,8.30
2023-01-10T06:26:51.838Z,8.68
2023-01-10T06:29:54.570Z,8.45
2023-01-10T06:33:01.426Z,7.57
2023-01-10T06:36:03.589Z,6.70
2023-01-10T06:42:08.279Z,6.47
2023-01-10T06:45:12.268Z,6.32
2023-01-10T06:48:14.058Z,6.65
2023-01-10T06:51:19.800Z,7.28
2023-01-10T06:54:23.301Z,5.85
2023-01-10T06:57:25.121Z,7.28
2023-01-10T07:00:29.156Z,8.25
2023-01-10T07:03:30.987Z,11.55
2023-01-10T07:06:37.479Z,12.63
2023-01-10T07:09:40.764Z,6.50
2023-01-10T07:12:42.577Z,6.18
2023-01-10T07:15:44.357Z,7.90
2023-01-10T07:18:46.204Z,6.35
2023-01-10T07:21:48.021Z,23.35
2023-01-10T07:24:51.682Z,10.30
2023-01-10T07:27:55.697Z,16.10
2023-01-10T07:30:59.068Z,8.13
2023-01-10T07:34:01.102Z,18.50
2023-01-10T07:37:02.908Z,8.00
2023-01-10T07:40:07.810Z,17.42
2023-01-10T07:43:10.049Z,16.55
2023-01-10T07:52:16.266Z,8.35
2023-01-10T07:55:19.646Z,6.15
2023-01-10T07:58:21.495Z,7.00
2023-01-10T08:01:25.153Z,6.43
2023-01-10T08:04:27.255Z,18.85
2023-01-10T08:07:29.252Z,9.80
2023-01-10T08:10:33.896Z,8.95
2023-01-10T08:13:35.767Z,6.50
2023-01-10T08:16:37.481Z,7.15
2023-01-10T08:19:39.506Z,6.95
2023-01-10T08:22:41.284Z,8.80
2023-01-10T08:25:45.198Z,8.48
2023-01-10T08:28:47.019Z,17.00
2023-01-10T08:31:48.870Z,12.63
2023-01-10T08:34:50.609Z,25.08
2023-01-10T08:37:52.463Z,8.85
2023-01-10T08:40:58.377Z,7.97
2023-01-10T08:44:00.803Z,8.43
2023-01-10T08:47:04.093Z,7.30
2023-01-10T08:53:10.786Z,6.65
2023-01-10T08:56:13.928Z,5.78
2023-01-10T08:59:16.535Z,6.70
2023-01-10T09:02:18.489Z,6.45
2023-01-10T09:05:28.602Z,6.68
2023-01-10T09:08:30.620Z,5.45
2023-01-10T09:11:34.082Z,5.97
2023-01-10T09:14:35.902Z,6.18
2023-01-10T09:17:37.753Z,5.63
2023-01-10T09:20:40.987Z,5.03
2023-01-10T09:23:43.726Z,5.80
2023-01-10T09:26:46.950Z,5.50
2023-01-10T09:29:48.966Z,6.13
2023-01-10T09:35:52.991Z,5.50
2023-01-10T09:38:54.680Z,6.30
2023-01-10T09:42:11.823Z,5.03
2023-01-10T09:45:17.838Z,5.55
2023-01-10T09:48:26.905Z,5.68
2023-01-10T09:51:35.729Z,6.22
2023-01-10T09:54:42.227Z,10.95
2023-01-10T09:57:46.087Z,7.72
2023-01-10T10:00:51.749Z,8.85
2023-01-10T10:04:00.901Z,17.60
2023-01-10T10:07:04.193Z,8.38
2023-01-10T10:10:07.695Z,7.05
2023-01-10T10:13:27.585Z,7.13
2023-01-10T10:16:37.210Z,8.82
2023-01-10T10:19:53.161Z,8.02
2023-01-10T10:23:13.896Z,11.02
2023-01-10T10:26:26.569Z,16.30
2023-01-10T10:29:51.046Z,6.20
2023-01-10T10:33:06.942Z,8.68
2023-01-10T10:36:14.027Z,6.57
2023-01-10T10:39:20.967Z,6.10
2023-01-10T10:42:28.230Z,5.88
2023-01-10T10:45:40.836Z,5.53
2023-01-10T10:48:50.817Z,6.85
2023-01-10T10:51:54.018Z,5.30
2023-01-10T10:54:55.925Z,6.10
2023-01-10T11:01:05.123Z,4.80
2023-01-10T11:04:10.447Z,6.07
2023-01-10T11:07:16.647Z,5.53
2023-01-10T11:10:38.383Z,5.45
2023-01-10T11:13:46.866Z,4.83
2023-01-10T11:16:50.337Z,4.95
2023-01-10T11:19:57.296Z,5.75
2023-01-10T11:22:59.261Z,4.90
2023-01-10T11:26:01.263Z,4.95
2023-01-10T11:29:09.271Z,4.75
2023-01-10T11:32:15.566Z,5.30
2023-01-10T11:35:22.093Z,4.68
2023-01-10T11:38:29.207Z,6.45
2023-01-10T11:41:34.697Z,5.15
2023-01-10T11:44:36.445Z,4.97
2023-01-10T11:47:45.732Z,4.78
2023-01-10T11:50:50.506Z,4.68
2023-01-10T11:53:59.232Z,4.78
2023-01-10T11:57:04.089Z,4.13
2023-01-10T12:00:12.540Z,4.18
2023-01-10T12:03:20.128Z,4.10
2023-01-10T12:06:22.061Z,3.65
2023-01-10T12:09:36.425Z,4.32
2023-01-10T12:12:38.908Z,3.80
2023-01-10T12:15:41.387Z,4.18
2023-01-10T12:18:48.557Z,4.50
2023-01-10T12:21:51.475Z,4.55
2023-01-10T12:24:54.782Z,4.07
2023-01-10T12:27:58.231Z,3.90
2023-01-10T12:31:01.284Z,3.65
2023-01-10T12:34:12.095Z,3.80
2023-01-10T12:37:21.398Z,3.75
2023-01-10T12:40:35.327Z,3.45
2023-01-10T12:44:03.440Z,3.65
2023-01-10T12:47:14.524Z,3.40
2023-01-10T12:50:22.924Z,3.25
2023-01-10T12:53:30.494Z,4.35
2023-01-10T12:56:32.884Z,4.55
2023-01-10T12:59:40.217Z,3.65
2023-01-10T13:02:45.418Z,4.85
2023-01-10T13:05:49.855Z,4.13
2023-01-10T13:08:53.233Z,5.47
2023-01-10T13:11:59.565Z,4.35
2023-01-10T13:15:07.503Z,3.92
2023-01-10T13:18:19.434Z,6.55
2023-01-10T13:21:22.719Z,4.18
2023-01-10T13:24:28.858Z,6.45
2023-01-10T13:27:33.363Z,3.70
2023-01-10T13:30:42.861Z,6.05
2023-01-10T13:33:53.408Z,3.90
2023-01-10T13:37:00.553Z,3.78
2023-01-10T13:40:04.529Z,4.18
2023-01-10T13:43:34.296Z,6.68
2023-01-10T13:46:45.505Z,6.25
2023-01-10T13:49:47.424Z,4.40
2023-01-10T13:52:56.932Z,5.05
2023-01-10T13:55:58.788Z,4.70
2023-01-10T13:59:19.396Z,4.47
2023-01-10T14:02:29.753Z,4.32
2023-01-10T14:05:31.668Z,3.55
2023-01-10T14:08:39.336Z,2.95
2023-01-10T14:11:51.899Z,3.03
2023-01-10T14:14:57.829Z,2.95
2023-01-10T14:18:03.408Z,2.97
2023-01-10T14:21:07.432Z,3.13
2023-01-10T14:24:23.826Z,3.33
2023-01-10T14:27:28.080Z,2.72
2023-01-10T14:30:33.227Z,2.78
2023-01-10T14:33:37.279Z,2.42
2023-01-10T14:36:46.671Z,2.78
2023-01-10T14:39:53.144Z,2.38
2023-01-10T14:42:58.633Z,2.28
2023-01-10T14:46:04.294Z,2.53
2023-01-10T14:49:20.651Z,3.67
2023-01-10T14:52:24.247Z,3.15
2023-01-10T14:55:28.402Z,1.98
2023-01-10T14:58:30.291Z,2.10
2023-01-10T15:01:32.421Z,2.35
2023-01-10T15:07:38.961Z,2.58
2023-01-10T15:10:44.098Z,2.75
2023-01-10T15:13:51.062Z,2.72
2023-01-10T15:16:56.409Z,2.63
2023-01-10T15:19:58.687Z,1.88
2023-01-10T15:23:02.135Z,2.55
2023-01-10T15:26:10.591Z,3.13
2023-01-10T15:29:19.485Z,3.13
2023-01-10T15:32:26.733Z,2.33
2023-01-10T15:35:36.039Z,4.60
2023-01-10T15:38:43.937Z,5.82
2023-01-10T15:41:47.419Z,8.57
2023-01-10T15:44:53.742Z,9.25
2023-01-10T15:48:03.080Z,4.05
2023-01-10T15:51:13.977Z,3.25
2023-01-10T15:54:30.453Z,1.98
2023-01-10T15:57:36.075Z,5.47
2023-01-10T16:00:37.829Z,3.13
2023-01-10T16:03:46.101Z,2.75
2023-01-10T16:06:54.034Z,1.70
2023-01-10T16:10:00.679Z,2.40
2023-01-10T16:13:27.640Z,1.63
2023-01-10T16:16:29.651Z,1.70
2023-01-10T16:19:31.517Z,2.50
2023-01-10T16:22:35.174Z,2.47
2023-01-10T16:25:39.012Z,2.15
2023-01-10T16:28:42.197Z,2.78
2023-01-10T16:31:44.228Z,2.15
2023-01-10T16:34:46.273Z,2.47
2023-01-10T16:37:48.534Z,2.40
2023-01-10T16:40:52.701Z,1.45
2023-01-10T16:43:56.309Z,3.53
2023-01-10T16:46:58.222Z,2.10
2023-01-10T16:50:00.095Z,1.50
2023-01-10T16:53:02.087Z,2.13
2023-01-10T16:56:04.225Z,1.35
2023-01-10T16:59:07.559Z,1.55
2023-01-10T17:02:17.775Z,1.95
2023-01-10T17:05:19.543Z,1.98
2023-01-10T17:08:23.204Z,1.40
2023-01-10T17:11:29.134Z,1.50
2023-01-10T17:14:34.464Z,1.27
2023-01-10T17:17:36.242Z,1.38
2023-01-10T17:20:37.995Z,1.20
2023-01-10T17:23:39.820Z,1.52
2023-01-10T17:26:41.617Z,1.00
2023-01-10T17:29:44.934Z,1.35
2023-01-10T17:32:46.782Z,1.60
2023-01-10T17:35:48.611Z,2.00
2023-01-10T17:38:50.366Z,1.65
2023-01-10T17:41:52.087Z,1.30
2023-01-10T17:44:55.266Z,1.27
2023-01-10T17:47:58.249Z,1.42
2023-01-10T17:51:01.083Z,1.15
2023-01-10T17:54:03.378Z,1.58
2023-01-10T18:00:12.268Z,1.00
2023-01-10T18:03:14.239Z,1.73
2023-01-10T18:06:23.785Z,1.92
2023-01-10T18:09:26.637Z,1.35
2023-01-10T18:12:28.499Z,1.35
2023-01-10T18:15:31.664Z,0.90
2023-01-10T18:18:33.598Z,1.30
2023-01-10T18:21:35.809Z,2.88
2023-01-10T18:27:39.741Z,1.58
2023-01-10T18:30:42.905Z,1.35
2023-01-10T18:33:48.225Z,2.28
2023-01-10T18:36:50.065Z,3.05
2023-01-10T18:39:51.951Z,3.55
2023-01-10T18:42:54.221Z,5.97
2023-01-10T18:46:01.457Z,7.35
2023-01-10T18:49:03.403Z,3.83
2023-01-10T18:52:05.225Z,3.38
2023-01-10T18:55:08.182Z,2.63
2023-01-10T18:58:10.495Z,2.38
2023-01-10T19:01:16.037Z,2.70
2023-01-10T19:04:18.714Z,1.40
2023-01-10T19:07:20.609Z,1.50
2023-01-10T19:10:22.508Z,2.42
2023-01-10T19:13:24.492Z,1.45
2023-01-10T19:16:29.442Z,2.80
2023-01-10T19:19:31.330Z,2.35
2023-01-10T19:22:33.195Z,1.67
2023-01-10T19:25:35.413Z,1.80
2023-01-10T19:31:41.706Z,8.60
2023-01-10T19:34:46.171Z,8.10
2023-01-10T19:37:48.913Z,4.53
2023-01-10T19:40:51.901Z,3.85
2023-01-10T19:43:58.278Z,2.25
2023-01-10T19:47:01.566Z,7.28
2023-01-10T19:50:03.880Z,3.38
2023-01-10T19:53:05.770Z,4.68
2023-01-10T19:56:10.111Z,3.50
2023-01-10T19:59:15.457Z,2.03
2023-01-10T20:02:19.699Z,3.75
2023-01-10T20:05:21.635Z,3.05
2023-01-10T20:08:23.515Z,3.53
2023-01-10T20:11:37.752Z,3.25
2023-01-10T20:14:39.997Z,2.53
2023-01-10T20:17:43.418Z,2.25
2023-01-10T20:20:45.360Z,1.70
2023-01-10T20:23:47.727Z,3.08
2023-01-10T20:26:51.065Z,5.40
2023-01-10T20:29:52.958Z,9.52
2023-01-10T20:32:56.519Z,3.17
2023-01-10T20:35:59.579Z,2.97
2023-01-10T20:39:01.364Z,3.72
2023-01-10T20:42:03.457Z,17.77
2023-01-10T20:45:06.319Z,6.55
2023-01-10T20:48:09.826Z,3.58
2023-01-10T20:51:14.215Z,2.00
2023-01-10T20:54:16.531Z,2.15
2023-01-10T20:57:19.238Z,2.25
2023-01-10T21:00:24.097Z,1.60
2023-01-10T21:03:27.571Z,1.70
2023-01-10T21:06:29.490Z,1.90
2023-01-10T21:09:31.363Z,2.00
2023-01-10T21:12:34.445Z,1.90
2023-01-10T21:15:38.914Z,2.33
2023-01-10T21:18:44.546Z,1.85
2023-01-10T21:21:46.319Z,1.73
2023-01-10T21:24:49.878Z,1.33
2023-01-10T21:27:51.899Z,0.93
2023-01-10T21:30:53.831Z,1.85
2023-01-10T21:33:57.345Z,1.55
2023-01-10T21:37:00.153Z,1.40
2023-01-10T21:40:01.965Z,1.30
2023-01-10T21:43:03.957Z,2.00
2023-01-10T21:46:06.035Z,1.42
2023-01-10T21:49:09.593Z,0.90
2023-01-10T21:52:11.306Z,1.10
2023-01-10T21:55:15.013Z,1.05
2023-01-10T21:58:16.882Z,1.20
2023-01-10T22:01:18.904Z,1.00
2023-01-10T22:04:22.135Z,0.85
2023-01-10T22:07:26.038Z,1.50
2023-01-10T22:10:28.071Z,1.50
2023-01-10T22:13:30.128Z,14.70
2023-01-10T22:16:32.027Z,12.88
2023-01-10T22:19:35.225Z,3.00
2023-01-10T22:22:37.523Z,14.77
2023-01-10T22:28:41.249Z,2.25
2023-01-10T22:31:43.874Z,4.93
2023-01-10T22:34:47.234Z,5.13
2023-01-10T22:37:49.155Z,1.70
2023-01-10T22:40:51.278Z,6.85
2023-01-10T22:43:53.719Z,5.57
2023-01-10T22:46:56.171Z,4.05
2023-01-10T22:49:59.319Z,7.82
2023-01-10T22:53:01.146Z,14.07
2023-01-10T22:56:04.207Z,3.65
2023-01-10T22:59:06.137Z,4.30
2023-01-10T23:02:08.200Z,1.70
2023-01-10T23:05:11.568Z,7.50
2023-01-10T23:08:13.594Z,3.28
2023-01-10T23:11:18.275Z,6.35
2023-01-10T23:14:20.097Z,4.90
2023-01-10T23:17:23.672Z,1.33
2023-01-10T23:20:27.545Z,1.30
2023-01-10T23:23:29.620Z,1.40
2023-01-10T23:26:31.758Z,0.73
2023-01-10T23:32:35.607Z,0.87
2023-01-10T23:35:38.787Z,1.05
2023-01-10T23:38:40.731Z,1.00
2023-01-10T23:41:42.499Z,1.17
2023-01-10T23:44:47.604Z,1.15
2023-01-10T23:47:49.508Z,0.80
2023-01-10T23:50:52.832Z,0.90
2023-01-10T23:53:54.693Z,0.80
2023-01-10T23:56:56.607Z,0.90
